Time;durP1;ratioP1;P1;durP2;ratioP2;P2;SDS_P1;SDS_P2;PMS_P1;PMS_P2;Temp;Humidity;BMP_temperature;BMP_pressure;BME280_temperature;BME280_humidity;BME280_pressure;Samples;Min_cycle;Max_cycle;Signal;HPM_P1;HPM_P2
2023/06/27 00:00:48;;;;;;;4.10;3.40;;;16.70;99.90;;;;;;5000501;28;20203;-75
2023/06/27 00:03:14;;;;;;;3.60;3.40;;;16.70;99.90;;;;;;5005984;28;20177;-75
2023/06/27 00:05:39;;;;;;;3.03;2.93;;;16.70;99.90;;;;;;4982432;28;20208;-76
2023/06/27 00:08:06;;;;;;;3.33;3.10;;;16.60;99.90;;;;;;5005838;28;20393;-75
2023/06/27 00:10:32;;;;;;;3.33;3.13;;;16.60;99.90;;;;;;5002408;28;20212;-75
2023/06/27 00:12:58;;;;;;;4.07;3.60;;;16.60;99.90;;;;;;4988043;28;20514;-75
2023/06/27 00:15:23;;;;;;;3.17;3.03;;;16.70;99.90;;;;;;5002913;28;20550;-75
2023/06/27 00:17:51;;;;;;;2.97;2.80;;;16.60;99.90;;;;;;5003089;28;20659;-75
2023/06/27 00:20:16;;;;;;;3.50;3.30;;;16.60;99.90;;;;;;4987538;28;20207;-77
2023/06/27 00:22:45;;;;;;;3.13;3.03;;;16.50;99.90;;;;;;4990558;28;20475;-77
2023/06/27 00:25:11;;;;;;;3.30;3.10;;;16.50;99.90;;;;;;5005132;28;20199;-75
2023/06/27 00:27:37;;;;;;;3.20;3.00;;;16.40;99.90;;;;;;4988583;28;20459;-76
2023/06/27 00:30:03;;;;;;;3.87;3.73;;;16.30;99.90;;;;;;5002002;28;20562;-75
2023/06/27 00:32:29;;;;;;;3.23;3.13;;;16.30;99.90;;;;;;5006119;28;20478;-75
2023/06/27 00:34:54;;;;;;;2.70;2.67;;;16.30;99.90;;;;;;4999984;28;20435;-75
2023/06/27 00:37:20;;;;;;;3.27;3.07;;;16.30;99.90;;;;;;5005646;28;20770;-75
2023/06/27 00:39:45;;;;;;;3.37;3.20;;;16.40;99.90;;;;;;5001855;28;20283;-74
2023/06/27 00:42:11;;;;;;;3.30;3.00;;;16.30;99.90;;;;;;5004529;28;20744;-75
2023/06/27 00:44:36;;;;;;;3.10;3.00;;;16.20;99.90;;;;;;4996330;28;20192;-75
2023/06/27 00:47:02;;;;;;;3.40;3.10;;;16.10;99.90;;;;;;5004383;28;20188;-77
2023/06/27 00:49:28;;;;;;;3.10;3.00;;;16.00;99.90;;;;;;5004277;28;20188;-75
2023/06/27 00:51:55;;;;;;;3.47;3.20;;;16.10;99.90;;;;;;5004751;28;20447;-75
2023/06/27 00:54:21;;;;;;;3.27;3.17;;;16.00;99.90;;;;;;4984799;28;20703;-74
2023/06/27 00:56:49;;;;;;;3.13;2.83;;;15.80;99.90;;;;;;5003462;28;20454;-75
2023/06/27 00:59:15;;;;;;;3.23;2.93;;;15.70;99.90;;;;;;5000973;28;20477;-76
2023/06/27 01:01:40;;;;;;;7.50;3.60;;;16.10;99.90;;;;;;5002023;28;20471;-75
2023/06/27 01:04:06;;;;;;;3.17;2.97;;;15.80;99.90;;;;;;4996725;28;20283;-75
2023/06/27 01:06:59;;;;;;;4.07;3.93;;;15.90;99.90;;;;;;5002157;28;20601;-74
2023/06/27 01:09:42;;;;;;;2.83;2.73;;;15.90;99.90;;;;;;4993707;28;20221;-75
2023/06/27 01:12:39;;;;;;;3.33;3.17;;;15.90;99.90;;;;;;4981347;28;20478;-74
2023/06/27 01:15:06;;;;;;;3.83;3.63;;;16.00;99.90;;;;;;5001532;28;20431;-75
2023/06/27 01:17:35;;;;;;;3.00;2.90;;;15.90;99.90;;;;;;5005437;28;20800;-75
2023/06/27 01:20:02;;;;;;;3.60;3.27;;;15.70;99.90;;;;;;5001472;28;20969;-75
2023/06/27 01:22:35;;;;;;;2.97;2.90;;;15.70;99.90;;;;;;5001410;28;21051;-76
2023/06/27 01:25:02;;;;;;;3.30;3.10;;;15.80;99.90;;;;;;5001508;28;20443;-75
2023/06/27 01:27:28;;;;;;;3.70;3.60;;;15.80;99.90;;;;;;4998943;28;20442;-76
2023/06/27 01:29:54;;;;;;;3.27;3.17;;;15.80;99.90;;;;;;5001260;28;20951;-75
2023/06/27 01:32:46;;;;;;;3.70;3.40;;;15.60;99.90;;;;;;5003016;28;20448;-75
2023/06/27 01:35:43;;;;;;;3.07;2.97;;;15.60;99.90;;;;;;5006711;28;20439;-75
2023/06/27 01:38:25;;;;;;;3.67;3.47;;;15.70;99.90;;;;;;4994732;28;20442;-76
2023/06/27 01:40:54;;;;;;;4.30;4.00;;;15.60;99.90;;;;;;5004640;28;20540;-76
2023/06/27 01:43:22;;;;;;;3.20;3.00;;;15.50;99.90;;;;;;5000595;28;21356;-75
2023/06/27 01:45:51;;;;;;;4.00;3.80;;;15.50;99.90;;;;;;5002637;28;20431;-75
2023/06/27 01:48:17;;;;;;;4.67;3.83;;;15.50;99.90;;;;;;4981443;28;20451;-75
2023/06/27 01:50:43;;;;;;;3.73;3.47;;;15.40;99.90;;;;;;5003468;28;21032;-76
2023/06/27 01:53:08;;;;;;;5.60;3.70;;;15.40;99.90;;;;;;4998675;28;20443;-77
2023/06/27 01:55:34;;;;;;;3.53;3.20;;;15.40;99.90;;;;;;5003715;28;20181;-76
2023/06/27 01:58:00;;;;;;;4.10;3.80;;;15.50;99.90;;;;;;5000118;28;20263;-75
2023/06/27 02:00:27;;;;;;;7.30;3.97;;;15.60;99.90;;;;;;5004208;28;20197;-76
2023/06/27 02:02:53;;;;;;;4.30;3.70;;;15.40;99.90;;;;;;5002269;28;20541;-76
2023/06/27 02:05:18;;;;;;;4.63;3.27;;;15.40;99.90;;;;;;4997122;28;20454;-75
2023/06/27 02:07:44;;;;;;;4.20;4.10;;;15.50;99.90;;;;;;5004719;28;20752;-75
2023/06/27 02:10:10;;;;;;;4.23;3.83;;;15.40;99.90;;;;;;5000927;28;20216;-76
2023/06/27 02:12:35;;;;;;;3.17;3.10;;;15.30;99.90;;;;;;5004076;28;20195;-75
2023/06/27 02:15:01;;;;;;;4.40;3.20;;;15.40;99.90;;;;;;4999991;28;20212;-77
2023/06/27 02:17:27;;;;;;;3.13;3.13;;;15.40;99.90;;;;;;4988795;28;20185;-75
2023/06/27 02:19:52;;;;;;;3.87;3.67;;;15.50;99.90;;;;;;5008039;28;20439;-76
2023/06/27 02:22:18;;;;;;;3.90;3.90;;;15.50;99.90;;;;;;4986200;28;20219;-74
2023/06/27 02:24:43;;;;;;;4.53;3.87;;;15.50;99.90;;;;;;5004972;28;20263;-76
2023/06/27 02:27:09;;;;;;;4.37;3.97;;;15.60;99.90;;;;;;5004457;28;20802;-76
2023/06/27 02:29:34;;;;;;;3.70;3.60;;;15.50;99.90;;;;;;5013974;28;20192;-75
2023/06/27 02:32:00;;;;;;;3.80;3.53;;;15.50;99.90;;;;;;5010845;28;20199;-75
2023/06/27 02:34:26;;;;;;;3.53;3.33;;;15.40;99.90;;;;;;4992092;28;20656;-76
2023/06/27 02:36:52;;;;;;;3.80;3.60;;;15.50;99.90;;;;;;4984730;28;20782;-75
2023/06/27 02:39:17;;;;;;;3.20;3.10;;;15.50;99.90;;;;;;5004252;28;20206;-75
2023/06/27 02:41:43;;;;;;;3.40;3.30;;;15.60;99.90;;;;;;5006815;28;20580;-76
2023/06/27 02:44:08;;;;;;;3.13;3.07;;;15.60;99.90;;;;;;5003958;28;20249;-75
2023/06/27 02:46:34;;;;;;;3.40;3.27;;;15.60;99.90;;;;;;5003799;28;20233;-75
2023/06/27 02:48:59;;;;;;;4.03;3.70;;;15.70;99.90;;;;;;4986299;28;20826;-76
2023/06/27 02:51:25;;;;;;;3.67;3.37;;;15.60;99.90;;;;;;5002566;28;20200;-76
2023/06/27 02:53:51;;;;;;;4.13;3.60;;;15.60;99.90;;;;;;5002839;28;20284;-76
2023/06/27 02:56:16;;;;;;;3.27;3.03;;;15.50;99.90;;;;;;5006980;28;20196;-75
2023/06/27 02:58:42;;;;;;;4.27;3.83;;;15.40;99.90;;;;;;5003284;28;20192;-75
2023/06/27 03:01:07;;;;;;;3.83;3.73;;;15.40;99.90;;;;;;5006421;28;20185;-76
2023/06/27 03:03:33;;;;;;;3.87;3.67;;;15.40;99.90;;;;;;5001799;28;20207;-75
2023/06/27 03:06:03;;;;;;;4.40;4.20;;;15.40;99.90;;;;;;5007000;28;20808;-75
2023/06/27 03:08:30;;;;;;;7.60;3.80;;;15.40;99.90;;;;;;5004472;28;20442;-75
2023/06/27 03:10:56;;;;;;;4.30;3.90;;;15.50;99.90;;;;;;5004513;28;20564;-76
2023/06/27 03:13:22;;;;;;;3.97;3.77;;;15.60;99.90;;;;;;5002402;28;20583;-75
2023/06/27 03:15:47;;;;;;;3.50;3.40;;;15.60;99.90;;;;;;5010224;28;20423;-74
2023/06/27 03:18:13;;;;;;;3.63;3.50;;;15.60;99.90;;;;;;5001512;28;20200;-74
2023/06/27 03:20:38;;;;;;;4.10;3.87;;;15.60;99.90;;;;;;5006663;28;20193;-75
2023/06/27 03:23:04;;;;;;;4.70;4.50;;;15.60;99.90;;;;;;5002306;28;20603;-74
2023/06/27 03:25:29;;;;;;;4.43;3.90;;;15.60;99.90;;;;;;5002869;28;20295;-75
2023/06/27 03:27:55;;;;;;;9.27;4.17;;;15.60;99.90;;;;;;5004319;28;20184;-75
2023/06/27 03:30:20;;;;;;;3.83;3.63;;;15.80;99.90;;;;;;4998505;28;20189;-75
2023/06/27 03:32:46;;;;;;;4.20;3.23;;;15.80;99.90;;;;;;5005972;28;20287;-76
2023/06/27 03:35:11;;;;;;;4.53;4.20;;;15.70;99.90;;;;;;4999026;28;20201;-74
2023/06/27 03:37:37;;;;;;;4.10;3.83;;;15.80;99.90;;;;;;5003519;28;20197;-75
2023/06/27 03:40:04;;;;;;;4.30;3.70;;;15.70;99.90;;;;;;4986985;28;20184;-76
2023/06/27 03:42:30;;;;;;;3.97;3.87;;;15.80;99.90;;;;;;5010165;28;20604;-75
2023/06/27 03:44:56;;;;;;;4.47;4.17;;;15.70;99.90;;;;;;5001055;28;20461;-77
2023/06/27 03:47:23;;;;;;;3.80;3.50;;;15.90;99.90;;;;;;4989927;28;20804;-76
2023/06/27 03:49:49;;;;;;;4.07;3.97;;;15.80;99.90;;;;;;5003561;28;20192;-76
2023/06/27 03:52:14;;;;;;;3.87;3.60;;;15.90;99.90;;;;;;5004447;28;21004;-76
2023/06/27 03:54:40;;;;;;;3.63;3.33;;;16.00;99.90;;;;;;5004867;28;20207;-77
2023/06/27 03:57:06;;;;;;;3.87;3.77;;;16.00;99.90;;;;;;4984287;28;20656;-76
2023/06/27 03:59:32;;;;;;;4.80;3.67;;;16.00;99.90;;;;;;4991043;28;20271;-77
2023/06/27 04:01:58;;;;;;;3.57;3.37;;;15.90;99.90;;;;;;4997498;28;20295;-76
2023/06/27 04:04:24;;;;;;;4.50;4.20;;;15.80;99.90;;;;;;5009392;28;20506;-77
2023/06/27 04:06:50;;;;;;;4.70;4.50;;;15.90;99.90;;;;;;5001890;28;20447;-77
2023/06/27 04:09:15;;;;;;;3.57;3.43;;;15.80;99.90;;;;;;4987672;28;20424;-77
2023/06/27 04:11:41;;;;;;;4.50;3.47;;;15.80;99.90;;;;;;4995324;28;20684;-77
2023/06/27 04:14:06;;;;;;;4.00;3.70;;;15.90;99.90;;;;;;5006445;28;20192;-76
2023/06/27 04:16:32;;;;;;;5.70;4.10;;;16.00;99.90;;;;;;5005771;28;20193;-75
2023/06/27 04:18:57;;;;;;;4.03;3.63;;;16.00;99.90;;;;;;4998756;28;20334;-75
2023/06/27 04:21:23;;;;;;;7.53;3.90;;;16.10;99.90;;;;;;5001531;28;20244;-75
2023/06/27 04:23:56;;;;;;;4.50;4.30;;;16.10;99.90;;;;;;4996644;28;20220;-76
2023/06/27 04:26:22;;;;;;;4.00;3.60;;;16.20;99.90;;;;;;5005322;28;20212;-75
2023/06/27 04:28:48;;;;;;;4.03;3.80;;;16.30;99.90;;;;;;5001876;28;20970;-76
2023/06/27 04:31:13;;;;;;;4.00;3.80;;;16.50;99.90;;;;;;4987484;28;20710;-78
2023/06/27 04:33:40;;;;;;;4.80;3.93;;;16.50;99.90;;;;;;4996586;28;20447;-77
2023/06/27 04:36:06;;;;;;;4.53;4.23;;;16.60;99.90;;;;;;5005038;28;20192;-77
2023/06/27 04:38:37;;;;;;;4.33;3.90;;;16.80;99.90;;;;;;5003745;28;20430;-77
2023/06/27 04:41:07;;;;;;;4.30;3.90;;;16.80;99.90;;;;;;5004594;28;20989;-75
2023/06/27 04:43:33;;;;;;;4.00;3.80;;;17.10;99.90;;;;;;5003680;28;20443;-76
2023/06/27 04:45:59;;;;;;;5.17;3.77;;;17.40;99.90;;;;;;5004763;28;20531;-76
2023/06/27 04:48:25;;;;;;;3.63;3.33;;;17.60;99.90;;;;;;5001989;28;20526;-75
2023/06/27 04:50:51;;;;;;;3.73;3.50;;;17.90;99.90;;;;;;5004273;28;20428;-75
2023/06/27 04:53:19;;;;;;;3.80;3.50;;;18.00;99.90;;;;;;5000486;28;20804;-75
2023/06/27 04:55:46;;;;;;;5.60;3.90;;;18.10;99.90;;;;;;5004209;28;20184;-74
2023/06/27 04:58:11;;;;;;;6.27;3.83;;;18.10;99.90;;;;;;5001568;28;20537;-75
2023/06/27 05:00:37;;;;;;;4.73;3.63;;;18.20;99.90;;;;;;5004875;28;20518;-76
2023/06/27 05:03:03;;;;;;;3.80;3.70;;;18.40;99.90;;;;;;5000896;28;20866;-76
2023/06/27 05:05:32;;;;;;;3.83;3.53;;;18.40;99.90;;;;;;5005006;28;20516;-75
2023/06/27 05:08:03;;;;;;;4.87;3.97;;;18.40;99.90;;;;;;5000758;28;20173;-75
2023/06/27 05:10:32;;;;;;;9.60;4.57;;;18.40;99.90;;;;;;5000959;28;20487;-76
2023/06/27 05:12:59;;;;;;;5.70;3.60;;;18.30;99.90;;;;;;4986268;28;20492;-75
2023/06/27 05:15:24;;;;;;;7.60;4.20;;;18.10;99.90;;;;;;5000610;28;20447;-75
2023/06/27 05:18:14;;;;;;;4.43;3.10;;;18.20;99.90;;;;;;5004938;28;20912;-76
2023/06/27 05:20:40;;;;;;;4.33;3.90;;;18.20;99.90;;;;;;4997610;28;20680;-75
2023/06/27 05:23:06;;;;;;;3.57;3.07;;;18.20;99.90;;;;;;5002258;28;20506;-75
2023/06/27 05:25:32;;;;;;;8.67;4.10;;;18.30;99.90;;;;;;5000819;28;20974;-76
2023/06/27 05:27:58;;;;;;;3.90;3.30;;;18.30;99.90;;;;;;5003325;28;20192;-75
2023/06/27 05:30:24;;;;;;;4.50;3.67;;;18.40;99.90;;;;;;4983531;28;20990;-75
2023/06/27 05:32:49;;;;;;;5.00;3.33;;;18.40;99.90;;;;;;5002073;28;20435;-76
2023/06/27 05:35:15;;;;;;;4.00;3.70;;;18.40;99.90;;;;;;4991905;28;20538;-76
2023/06/27 05:37:40;;;;;;;4.27;3.87;;;18.40;99.90;;;;;;4994977;28;20561;-76
2023/06/27 05:40:06;;;;;;;4.37;3.80;;;18.30;99.90;;;;;;5001461;28;20481;-76
2023/06/27 05:42:33;;;;;;;3.20;3.07;;;18.30;99.90;;;;;;4998580;28;20569;-75
2023/06/27 05:44:59;;;;;;;5.17;4.10;;;18.30;99.90;;;;;;5000091;28;21046;-74
2023/06/27 05:47:24;;;;;;;3.43;3.23;;;18.30;99.90;;;;;;5003559;28;20192;-75
2023/06/27 05:49:50;;;;;;;3.70;3.50;;;18.20;99.90;;;;;;5004591;28;20184;-74
2023/06/27 05:52:15;;;;;;;4.67;3.60;;;18.20;99.90;;;;;;5003486;28;20208;-74
2023/06/27 05:54:44;;;;;;;4.10;3.70;;;18.20;99.90;;;;;;4993005;28;20181;-74
2023/06/27 05:57:10;;;;;;;5.63;3.90;;;18.10;99.90;;;;;;5008991;28;20191;-75
2023/06/27 05:59:36;;;;;;;4.27;3.77;;;18.10;99.90;;;;;;4997458;28;20926;-74
2023/06/27 06:02:02;;;;;;;4.43;4.13;;;18.10;99.90;;;;;;5005254;28;20839;-75
2023/06/27 06:04:28;;;;;;;4.63;4.17;;;18.20;99.90;;;;;;5000275;28;20467;-76
2023/06/27 06:06:54;;;;;;;4.23;3.97;;;18.40;99.90;;;;;;5006221;28;21004;-76
2023/06/27 06:09:19;;;;;;;3.67;3.43;;;18.50;99.90;;;;;;5007738;28;20176;-76
2023/06/27 06:11:45;;;;;;;4.43;3.60;;;18.70;99.90;;;;;;5006498;28;20226;-76
2023/06/27 06:14:10;;;;;;;3.90;3.60;;;19.00;99.90;;;;;;5008629;28;20655;-75
2023/06/27 06:16:36;;;;;;;4.10;3.47;;;19.40;99.90;;;;;;5005531;28;20228;-75
2023/06/27 06:19:03;;;;;;;3.57;3.37;;;19.80;99.90;;;;;;5012380;28;20188;-75
2023/06/27 06:21:29;;;;;;;5.97;4.20;;;20.20;99.90;;;;;;5009032;28;20231;-76
2023/06/27 06:23:55;;;;;;;9.20;5.40;;;20.60;99.90;;;;;;5007312;28;20455;-75
2023/06/27 06:26:21;;;;;;;7.17;3.70;;;20.60;99.90;;;;;;5007140;28;20453;-76
2023/06/27 06:28:47;;;;;;;6.73;4.20;;;20.70;99.90;;;;;;5011091;28;21096;-77
2023/06/27 06:31:16;;;;;;;9.73;4.30;;;21.10;99.90;;;;;;5007354;28;20278;-76
2023/06/27 06:33:45;;;;;;;6.73;4.30;;;21.60;99.90;;;;;;5010771;28;20189;-77
2023/06/27 06:36:12;;;;;;;5.17;4.33;;;21.70;99.90;;;;;;5006433;28;21026;-75
2023/06/27 06:38:38;;;;;;;6.30;4.67;;;22.30;99.90;;;;;;4991948;28;20955;-74
2023/06/27 06:41:04;;;;;;;8.37;6.20;;;22.50;99.90;;;;;;5006569;28;20435;-75
2023/06/27 06:43:29;;;;;;;6.90;5.13;;;22.60;99.90;;;;;;5010084;28;20944;-76
2023/06/27 06:45:55;;;;;;;8.10;4.53;;;22.60;99.90;;;;;;5006990;28;20189;-75
2023/06/27 06:48:21;;;;;;;5.27;4.40;;;23.30;99.90;;;;;;5010087;28;20561;-75
2023/06/27 06:50:49;;;;;;;9.50;6.03;;;23.60;99.90;;;;;;5006418;28;20239;-76
2023/06/27 06:53:14;;;;;;;7.87;5.37;;;23.30;99.90;;;;;;5009767;28;20283;-75
2023/06/27 06:55:40;;;;;;;7.43;5.80;;;23.00;99.90;;;;;;5006984;28;20514;-76
2023/06/27 06:58:05;;;;;;;8.90;5.93;;;23.00;99.90;;;;;;5010796;28;20639;-75
2023/06/27 07:00:33;;;;;;;9.90;6.50;;;23.30;99.90;;;;;;5006254;28;20204;-76
2023/06/27 07:02:59;;;;;;;6.83;5.97;;;23.70;99.90;;;;;;5006110;28;20703;-76
2023/06/27 07:05:25;;;;;;;11.83;6.50;;;24.10;99.90;;;;;;5003006;28;20458;-76
2023/06/27 07:07:50;;;;;;;8.57;6.00;;;24.20;99.90;;;;;;4996255;28;20212;-76
2023/06/27 07:10:16;;;;;;;5.90;5.30;;;24.70;99.90;;;;;;5006620;28;20820;-76
2023/06/27 07:12:41;;;;;;;5.93;4.90;;;25.30;99.30;;;;;;5003085;28;20694;-75
2023/06/27 07:15:08;;;;;;;6.70;5.60;;;25.50;97.20;;;;;;5000079;28;20218;-76
2023/06/27 07:17:34;;;;;;;11.50;5.70;;;25.70;96.20;;;;;;5005607;28;20188;-76
2023/06/27 07:20:00;;;;;;;4.90;4.50;;;26.00;93.70;;;;;;5006693;28;20557;-75
2023/06/27 07:22:26;;;;;;;5.93;5.20;;;26.60;93.00;;;;;;5000595;28;20231;-75
2023/06/27 07:24:52;;;;;;;7.00;5.33;;;26.80;90.70;;;;;;4982639;28;20488;-75
2023/06/27 07:27:17;;;;;;;6.17;5.47;;;27.10;87.80;;;;;;4987906;28;20177;-76
2023/06/27 07:29:44;;;;;;;9.97;4.80;;;27.20;85.90;;;;;;5000628;28;20454;-76
2023/06/27 07:32:11;;;;;;;7.40;4.83;;;27.00;84.40;;;;;;4985258;28;20176;-76
2023/06/27 07:34:37;;;;;;;6.40;5.47;;;27.10;83.30;;;;;;4998828;28;20531;-76
2023/06/27 07:37:03;;;;;;;7.07;5.57;;;27.30;81.60;;;;;;5005493;28;20431;-76
2023/06/27 07:39:29;;;;;;;10.60;7.03;;;27.50;80.20;;;;;;4995599;28;20475;-76
2023/06/27 07:41:54;;;;;;;13.10;6.90;;;27.90;79.40;;;;;;5005161;28;20455;-76
2023/06/27 07:44:24;;;;;;;8.90;6.37;;;27.90;76.50;;;;;;5001952;28;20196;-75
2023/06/27 07:46:49;;;;;;;6.27;5.70;;;28.10;76.70;;;;;;5001270;28;20189;-75
2023/06/27 07:49:15;;;;;;;7.30;6.60;;;28.30;73.30;;;;;;4984709;28;20436;-76
2023/06/27 07:51:41;;;;;;;10.13;7.00;;;28.20;73.30;;;;;;4998718;28;20185;-77
2023/06/27 07:54:09;;;;;;;9.80;6.47;;;28.30;72.70;;;;;;4987198;28;20424;-76
2023/06/27 07:56:35;;;;;;;9.87;7.20;;;27.80;73.50;;;;;;5000884;28;20816;-76
2023/06/27 07:59:01;;;;;;;9.20;7.30;;;27.60;73.00;;;;;;5004027;28;20435;-76
2023/06/27 08:01:26;;;;;;;9.37;7.73;;;27.70;73.90;;;;;;4981886;28;20613;-76
2023/06/27 08:03:52;;;;;;;10.87;6.90;;;27.90;72.10;;;;;;5003359;28;20196;-76
2023/06/27 08:06:17;;;;;;;9.80;6.73;;;28.10;72.60;;;;;;4999579;28;20297;-76
2023/06/27 08:08:43;;;;;;;7.40;6.57;;;29.20;78.50;;;;;;5001654;28;20269;-76
2023/06/27 08:11:08;;;;;;;6.73;6.13;;;29.70;71.40;;;;;;5001027;28;20464;-75
2023/06/27 08:13:38;;;;;;;7.50;5.73;;;30.20;67.40;;;;;;5004967;28;20189;-74
2023/06/27 08:16:04;;;;;;;8.23;7.23;;;30.80;63.80;;;;;;4988996;28;20192;-76
2023/06/27 08:18:30;;;;;;;9.97;7.23;;;30.40;61.50;;;;;;5005314;28;20428;-77
2023/06/27 08:20:55;;;;;;;6.83;5.53;;;29.80;62.40;;;;;;5000446;28;20212;-77
2023/06/27 08:23:21;;;;;;;5.83;5.13;;;30.50;60.50;;;;;;4983635;28;20212;-77
2023/06/27 08:25:46;;;;;;;6.90;5.90;;;30.90;59.90;;;;;;5001019;28;20268;-76
2023/06/27 08:28:12;;;;;;;7.30;6.57;;;31.20;58.60;;;;;;5001928;28;20208;-75
2023/06/27 08:30:41;;;;;;;10.43;6.57;;;30.60;58.40;;;;;;5006590;28;20199;-74
2023/06/27 08:33:06;;;;;;;7.00;5.50;;;30.00;58.70;;;;;;5003708;28;20246;-75
2023/06/27 08:35:34;;;;;;;5.60;4.57;;;29.90;59.30;;;;;;5007420;28;20780;-76
2023/06/27 08:38:00;;;;;;;5.13;4.20;;;29.30;59.80;;;;;;5003062;28;20208;-76
2023/06/27 08:40:26;;;;;;;6.07;5.67;;;29.20;60.10;;;;;;5000888;28;20502;-77
2023/06/27 08:42:52;;;;;;;6.97;5.00;;;28.90;59.00;;;;;;5000655;28;20212;-77
2023/06/27 08:45:17;;;;;;;9.83;4.67;;;29.30;59.20;;;;;;4984179;28;20807;-76
2023/06/27 08:47:45;;;;;;;7.10;5.10;;;29.60;59.30;;;;;;4999326;28;20200;-75
2023/06/27 08:50:17;;;;;;;4.63;4.23;;;29.80;59.40;;;;;;4996705;28;20192;-76
2023/06/27 08:52:47;;;;;;;7.83;4.80;;;30.30;58.20;;;;;;5004689;28;20519;-76
2023/06/27 08:55:29;;;;;;;7.03;5.27;;;30.70;57.40;;;;;;4998307;28;20450;-75
2023/06/27 08:57:57;;;;;;;7.90;4.80;;;30.90;57.20;;;;;;4985303;28;20782;-76
2023/06/27 09:00:26;;;;;;;8.23;5.67;;;30.50;56.70;;;;;;5000407;28;20554;-76
2023/06/27 09:02:52;;;;;;;6.67;4.90;;;29.20;56.30;;;;;;5002960;28;20615;-75
2023/06/27 09:05:18;;;;;;;5.73;5.03;;;29.40;56.60;;;;;;5001438;28;20981;-75
2023/06/27 09:07:44;;;;;;;4.43;4.23;;;29.80;56.00;;;;;;4987343;28;20424;-76
2023/06/27 09:10:10;;;;;;;9.57;5.70;;;29.60;55.80;;;;;;5000170;28;20473;-75
2023/06/27 09:12:38;;;;;;;5.87;5.23;;;30.00;56.10;;;;;;5002675;28;20274;-76
2023/06/27 09:15:04;;;;;;;6.10;5.47;;;30.70;55.20;;;;;;5005430;28;20423;-75
2023/06/27 09:17:30;;;;;;;6.53;5.60;;;30.40;55.60;;;;;;5001848;28;20438;-75
2023/06/27 09:19:55;;;;;;;9.93;6.13;;;30.00;55.20;;;;;;5004223;28;20668;-75
2023/06/27 09:22:23;;;;;;;5.33;4.83;;;29.80;55.70;;;;;;4980102;28;20243;-75
2023/06/27 09:24:49;;;;;;;6.27;5.27;;;29.20;56.10;;;;;;4999471;28;20195;-76
2023/06/27 09:27:30;;;;;;;5.40;5.10;;;29.30;56.10;;;;;;4998588;28;20452;-75
2023/06/27 09:30:01;;;;;;;6.47;5.87;;;28.60;56.50;;;;;;4998629;28;20443;-74
2023/06/27 09:32:26;;;;;;;6.60;5.00;;;28.30;56.40;;;;;;5000214;28;21217;-75
2023/06/27 09:34:52;;;;;;;7.17;5.63;;;28.00;56.90;;;;;;4997175;28;20502;-76
2023/06/27 09:37:27;;;;;;;10.50;6.27;;;27.60;58.00;;;;;;5003483;28;20208;-76
2023/06/27 09:39:54;;;;;;;6.57;4.97;;;27.30;58.80;;;;;;4999105;28;20196;-76
2023/06/27 09:42:19;;;;;;;5.03;4.30;;;27.10;60.80;;;;;;4999514;28;20536;-75
2023/06/27 09:44:45;;;;;;;6.40;5.67;;;27.40;60.60;;;;;;4993135;28;20436;-75
2023/06/27 09:47:10;;;;;;;6.67;4.40;;;27.50;59.90;;;;;;4998753;28;20242;-76
2023/06/27 09:49:41;;;;;;;5.03;4.63;;;27.50;58.30;;;;;;5004600;28;20191;-76
2023/06/27 09:52:08;;;;;;;5.00;4.60;;;26.90;57.50;;;;;;5000561;28;20196;-75
2023/06/27 09:54:42;;;;;;;11.30;4.47;;;26.10;59.20;;;;;;5004237;28;20446;-75
2023/06/27 09:57:16;;;;;;;4.63;4.27;;;26.20;60.00;;;;;;4998775;28;20459;-76
2023/06/27 09:59:42;;;;;;;6.17;4.10;;;26.90;58.40;;;;;;5003578;28;20467;-75
2023/06/27 10:02:14;;;;;;;7.57;5.20;;;27.10;58.70;;;;;;4999294;28;20510;-74
2023/06/27 10:04:40;;;;;;;9.20;4.50;;;26.80;57.70;;;;;;4980662;28;20432;-75
2023/06/27 10:07:08;;;;;;;4.77;3.53;;;26.40;58.50;;;;;;4999388;28;20446;-76
2023/06/27 10:09:36;;;;;;;5.97;4.60;;;26.30;58.20;;;;;;5003617;28;20180;-76
2023/06/27 10:12:03;;;;;;;5.47;3.97;;;25.80;59.10;;;;;;4982548;28;20529;-77
2023/06/27 10:14:28;;;;;;;6.57;4.30;;;25.40;59.60;;;;;;5004964;28;20427;-76
2023/06/27 10:16:54;;;;;;;3.03;2.93;;;25.30;60.20;;;;;;5000299;28;20450;-76
2023/06/27 10:19:20;;;;;;;3.90;3.40;;;25.00;62.60;;;;;;5004112;28;20692;-77
2023/06/27 10:21:46;;;;;;;4.40;3.90;;;25.20;61.40;;;;;;4998397;28;20593;-77
2023/06/27 10:24:13;;;;;;;6.20;3.10;;;25.40;60.70;;;;;;4983592;28;20540;-75
2023/06/27 10:26:39;;;;;;;3.50;3.13;;;25.90;60.40;;;;;;5000187;28;20537;-77
2023/06/27 10:29:14;;;;;;;3.57;3.37;;;26.20;58.50;;;;;;5000694;28;20535;-77
2023/06/27 10:31:44;;;;;;;3.20;3.07;;;26.20;58.10;;;;;;5002019;28;20269;-77
2023/06/27 10:34:18;;;;;;;3.17;2.90;;;25.60;58.00;;;;;;4996881;28;20840;-77
2023/06/27 10:36:51;;;;;;;4.80;3.40;;;25.30;57.60;;;;;;5003649;28;20442;-77
2023/06/27 10:39:34;;;;;;;4.33;3.93;;;25.20;58.80;;;;;;4984385;28;20467;-77
2023/06/27 10:42:06;;;;;;;4.20;3.17;;;25.10;58.40;;;;;;5002663;28;21124;-78
2023/06/27 10:44:49;;;;;;;2.50;2.07;;;24.70;57.60;;;;;;5005744;28;20492;-77
2023/06/27 10:47:15;;;;;;;2.73;2.60;;;24.50;57.40;;;;;;5006305;28;20451;-77
2023/06/27 10:49:45;;;;;;;3.33;2.47;;;24.60;57.90;;;;;;5000045;28;20520;-77
2023/06/27 10:52:18;;;;;;;2.97;2.00;;;24.80;58.00;;;;;;5003665;28;20239;-76
2023/06/27 10:54:44;;;;;;;2.30;2.20;;;25.00;57.70;;;;;;5001426;28;20432;-78
2023/06/27 10:57:18;;;;;;;5.70;3.87;;;25.10;57.40;;;;;;5007098;28;20518;-77
2023/06/27 10:59:47;;;;;;;2.60;2.47;;;25.20;57.90;;;;;;5002793;28;20663;-76
2023/06/27 11:02:15;;;;;;;2.93;2.83;;;25.40;57.60;;;;;;4985643;28;20574;-77
2023/06/27 11:04:43;;;;;;;5.40;2.20;;;25.70;57.60;;;;;;5007064;28;20445;-77
2023/06/27 11:07:17;;;;;;;5.53;2.47;;;26.10;57.30;;;;;;5003352;28;20870;-79
2023/06/27 11:09:58;;;;;;;3.10;2.67;;;26.50;56.80;;;;;;5003455;28;20455;-77
2023/06/27 11:12:32;;;;;;;2.70;2.50;;;26.60;57.00;;;;;;5001105;28;20443;-77
2023/06/27 11:15:01;;;;;;;3.13;2.70;;;26.60;56.40;;;;;;5006666;28;20428;-76
2023/06/27 11:17:28;;;;;;;2.60;2.40;;;26.20;56.00;;;;;;4988619;28;20469;-77
2023/06/27 11:19:56;;;;;;;3.60;3.30;;;25.70;56.80;;;;;;5005941;28;20447;-78
2023/06/27 11:22:22;;;;;;;2.93;2.73;;;25.60;57.10;;;;;;4981322;28;20562;-76
2023/06/27 11:24:48;;;;;;;3.40;2.47;;;25.30;57.90;;;;;;5005954;28;20519;-78
2023/06/27 11:27:14;;;;;;;8.33;3.63;;;25.30;58.10;;;;;;4984884;28;20188;-77
2023/06/27 11:29:41;;;;;;;6.10;3.20;;;25.20;58.10;;;;;;5006282;28;20422;-76
2023/06/27 11:32:09;;;;;;;3.23;3.03;;;25.00;58.00;;;;;;5002013;28;20267;-76
2023/06/27 11:34:35;;;;;;;2.83;2.63;;;25.00;58.30;;;;;;4983350;28;20451;-77
2023/06/27 11:37:01;;;;;;;4.87;3.33;;;25.30;58.50;;;;;;5002314;28;20825;-78
2023/06/27 11:39:27;;;;;;;3.33;2.87;;;25.50;57.90;;;;;;5006037;28;20465;-77
2023/06/27 11:41:54;;;;;;;4.97;3.33;;;25.90;56.90;;;;;;5005145;28;20254;-76
2023/06/27 11:44:20;;;;;;;3.47;2.50;;;26.20;56.60;;;;;;5000449;28;20193;-77
2023/06/27 11:46:54;;;;;;;2.10;2.10;;;26.50;55.00;;;;;;5005096;28;21041;-77
2023/06/27 11:49:24;;;;;;;2.97;2.97;;;26.50;54.30;;;;;;5000551;28;20196;-77
2023/06/27 11:51:56;;;;;;;2.43;2.27;;;26.70;54.70;;;;;;5005254;28;20470;-76
2023/06/27 11:54:21;;;;;;;2.00;2.00;;;27.00;54.00;;;;;;5006338;28;20423;-76
2023/06/27 11:56:47;;;;;;;2.47;2.27;;;27.00;53.10;;;;;;5005062;28;20439;-78
2023/06/27 11:59:13;;;;;;;2.20;2.17;;;27.30;52.70;;;;;;4999068;28;20326;-77
2023/06/27 12:01:43;;;;;;;2.20;2.10;;;27.60;51.90;;;;;;5005593;28;20212;-77
2023/06/27 12:04:16;;;;;;;1.87;1.77;;;28.70;51.50;;;;;;5000152;28;20442;-76
2023/06/27 12:06:44;;;;;;;2.53;2.37;;;29.60;50.30;;;;;;5005586;28;20439;-76
2023/06/27 12:09:27;;;;;;;6.73;3.37;;;30.50;49.90;;;;;;4993098;28;20452;-77
2023/06/27 12:11:58;;;;;;;2.90;2.70;;;31.10;49.40;;;;;;5004141;28;20475;-76
2023/06/27 12:14:25;;;;;;;2.67;2.43;;;31.30;49.00;;;;;;4981235;28;20567;-75
2023/06/27 12:16:50;;;;;;;3.37;3.03;;;30.90;49.70;;;;;;5000610;28;20443;-75
2023/06/27 12:19:18;;;;;;;2.17;2.17;;;30.30;48.90;;;;;;4983078;28;20509;-76
2023/06/27 12:21:44;;;;;;;2.40;2.30;;;30.70;49.20;;;;;;4998296;28;20824;-75
2023/06/27 12:24:12;;;;;;;2.77;2.17;;;30.90;49.10;;;;;;5002097;28;20761;-76
2023/06/27 12:26:39;;;;;;;2.77;2.00;;;30.50;48.20;;;;;;5000765;28;20234;-76
2023/06/27 12:29:06;;;;;;;1.70;1.60;;;29.90;48.20;;;;;;5005660;28;20763;-76
2023/06/27 12:31:32;;;;;;;3.77;2.20;;;29.00;47.50;;;;;;5000715;28;20513;-76
2023/06/27 12:33:59;;;;;;;4.00;3.30;;;28.50;49.20;;;;;;5004413;28;20458;-77
2023/06/27 12:36:25;;;;;;;2.67;2.20;;;28.40;49.00;;;;;;4996700;28;20551;-77
2023/06/27 12:38:54;;;;;;;1.70;1.70;;;28.50;48.90;;;;;;5005625;28;20502;-81
2023/06/27 12:41:21;;;;;;;4.27;2.20;;;29.40;48.50;;;;;;4998350;28;20434;-76
2023/06/27 12:43:47;;;;;;;1.57;1.50;;;29.90;47.40;;;;;;5001112;28;20505;-77
2023/06/27 12:46:14;;;;;;;2.60;1.70;;;30.40;47.10;;;;;;5003720;28;20989;-76